Time;durP1;ratioP1;P1;durP2;ratioP2;P2;SDS_P1;SDS_P2;PMS_P1;PMS_P2;Temp;Humidity;BMP_temperature;BMP_pressure;BME280_temperature;BME280_humidity;BME280_pressure;Samples;Min_cycle;Max_cycle;Signal;HPM_P1;HPM_P2
2022/11/26 00:02:22;;;;;;;;;;;;;;;0.56;100.00;99767.69;106788;1302;22393;-60
2022/11/26 00:04:49;;;;;;;5.40;2.50;;;;;;;0.56;100.00;99767.38;106767;1277;22215;-61
2022/11/26 00:07:21;;;;;;;6.10;2.90;;;;;;;0.56;100.00;99767.98;106557;1298;138056;-61
2022/11/26 00:09:48;;;;;;;5.60;3.00;;;;;;;0.57;100.00;99763.33;106524;1305;22126;-61
2022/11/26 00:12:20;;;;;;;7.80;3.90;;;;;;;0.59;100.00;99765.08;106599;1294;137677;-60
2022/11/26 00:14:47;;;;;;;5.40;2.70;;;;;;;0.60;100.00;99770.15;106579;1305;22188;-61
2022/11/26 00:17:13;;;;;;;7.00;3.60;;;;;;;0.61;100.00;99771.95;106501;1303;139285;-60
2022/11/26 00:19:40;;;;;;;;;;;;;;;0.59;100.00;99769.70;106732;1301;22499;-61
2022/11/26 00:22:28;;;;;;;5.60;3.50;;;;;;;0.65;100.00;99771.64;106749;1295;22172;-61
2022/11/26 00:24:55;;;;;;;4.70;3.50;;;;;;;0.67;100.00;99773.23;106483;1302;138825;-61
2022/11/26 00:27:23;;;;;;;;;;;;;;;0.68;100.00;99770.60;106770;1294;22386;-61
2022/11/26 00:29:50;;;;;;;3.50;2.50;;;;;;;0.68;100.00;99770.73;106678;1302;124408;-60
2022/11/26 00:32:22;;;;;;;4.00;2.30;;;;;;;0.66;100.00;99771.16;106701;1297;23143;-61
2022/11/26 00:34:49;;;;;;;5.20;2.60;;;;;;;0.65;100.00;99773.98;106583;1291;22197;-61
2022/11/26 00:37:19;;;;;;;;;;;;;;;0.64;100.00;99772.48;106594;1302;138310;-61
2022/11/26 00:39:46;;;;;;;4.40;2.60;;;;;;;0.64;100.00;99769.30;106588;1294;22149;-60
2022/11/26 00:42:13;;;;;;;3.10;2.10;;;;;;;0.64;100.00;99775.21;106607;1302;138874;-60
2022/11/26 00:44:40;;;;;;;;;;;;;;;0.61;100.00;99765.43;106841;1303;22426;-61
2022/11/26 00:47:08;;;;;;;4.60;2.50;;;;;;;0.64;100.00;99771.95;106619;1300;124599;-60
2022/11/26 00:49:35;;;;;;;5.00;2.70;;;;;;;0.63;100.00;99768.30;106639;1283;22223;-61
2022/11/26 00:52:02;;;;;;;3.60;2.70;;;;;;;0.63;100.00;99771.86;106810;1302;22133;-61
2022/11/26 00:54:29;;;;;;;3.40;2.60;;;;;;;0.64;100.00;99771.13;106464;1303;138496;-60
2022/11/26 00:56:56;;;;;;;4.00;2.20;;;;;;;0.63;100.00;99771.60;106626;1302;22892;-61
2022/11/26 00:59:23;;;;;;;4.20;2.50;;;;;;;0.62;100.00;99776.50;106598;1302;139063;-60
2022/11/26 01:01:49;;;;;;;3.90;2.70;;;;;;;0.61;100.00;99780.86;106625;1302;22214;-61
2022/11/26 01:04:16;;;;;;;;;;;;;;;0.61;100.00;99777.55;106767;1302;22420;-61
2022/11/26 01:06:43;;;;;;;6.70;2.90;;;;;;;0.60;100.00;99772.47;106583;1304;125339;-61
2022/11/26 01:09:12;;;;;;;;;;;;;;;0.60;100.00;99769.66;106580;1290;23155;-61
2022/11/26 01:11:39;;;;;;;3.60;2.20;;;;;;;0.61;100.00;99765.59;106447;1303;124490;-60
2022/11/26 01:14:05;;;;;;;4.90;3.30;;;;;;;0.61;100.00;99766.66;106663;1302;23051;-61
2022/11/26 01:16:38;;;;;;;4.40;3.10;;;;;;;0.61;100.00;99770.91;106642;1302;22390;-60
2022/11/26 01:19:04;;;;;;;4.20;2.60;;;;;;;0.61;100.00;99769.71;106531;1291;137799;-61
2022/11/26 01:21:32;;;;;;;4.70;3.20;;;;;;;0.59;100.00;99769.73;106743;1302;22136;-60
2022/11/26 01:23:59;;;;;;;4.20;2.90;;;;;;;0.60;100.00;99766.23;106526;1302;138868;-60
2022/11/26 01:26:27;;;;;;;5.40;3.60;;;;;;;0.62;100.00;99767.09;106735;1286;22137;-60
2022/11/26 01:28:54;;;;;;;5.80;3.10;;;;;;;0.64;100.00;99768.56;106537;1297;138770;-60
2022/11/26 01:31:23;;;;;;;4.40;3.20;;;;;;;0.65;100.00;99772.38;106757;1294;22252;-61
2022/11/26 01:33:51;;;;;;;5.10;3.20;;;;;;;0.64;100.00;99772.86;106619;1305;22173;-61
2022/11/26 01:36:34;;;;;;;5.70;3.20;;;;;;;0.63;100.00;99771.15;104468;1306;138531;-60
2022/11/26 01:39:06;;;;;;;5.30;3.20;;;;;;;0.62;100.00;99769.69;102280;1310;25168;-60
2022/11/26 01:42:01;;;;;;;5.70;3.30;;;;;;;0.62;100.00;99770.73;102242;1289;139901;-61
2022/11/26 01:44:30;;;;;;;4.50;2.90;;;;;;;0.62;100.00;99770.47;102436;1298;25299;-60
2022/11/26 01:46:57;;;;;;;7.10;3.60;;;;;;;0.57;100.00;99760.55;106556;1302;138371;-61
2022/11/26 01:49:24;;;;;;;;;;;;;;;0.61;100.00;99767.70;106802;1295;22385;-61
2022/11/26 01:52:15;;;;;;;5.40;3.60;;;;;;;0.59;100.00;99772.77;106800;1302;22148;-61
2022/11/26 01:54:42;;;;;;;4.70;3.10;;;;;;;0.60;100.00;99779.14;106584;1286;138929;-61
2022/11/26 01:57:15;;;;;;;6.90;4.20;;;;;;;0.62;100.00;99780.49;106579;1305;22230;-61
2022/11/26 01:59:43;;;;;;;6.90;3.90;;;;;;;0.61;100.00;99780.16;106528;1302;138428;-61
2022/11/26 02:02:09;;;;;;;5.70;3.80;;;;;;;0.62;100.00;99781.65;106659;1302;22185;-61
2022/11/26 02:04:37;;;;;;;;;;;;;;;0.64;100.00;99781.39;106775;1303;23472;-61
2022/11/26 02:07:04;;;;;;;5.70;3.60;;;;;;;0.64;100.00;99783.92;106670;1302;124326;-61
2022/11/26 02:09:32;;;;;;;5.60;3.60;;;;;;;0.66;100.00;99785.27;106779;1295;22100;-61
2022/11/26 02:11:58;;;;;;;6.00;4.00;;;;;;;0.68;100.00;99782.16;106504;1291;137870;-61
2022/11/26 02:14:30;;;;;;;6.20;4.10;;;;;;;0.68;100.00;99785.95;106750;1302;22146;-61
2022/11/26 02:17:10;;;;;;;7.20;3.90;;;;;;;0.68;100.00;99790.65;106610;1303;138496;-62
2022/11/26 02:19:40;;;;;;;4.70;3.60;;;;;;;0.68;100.00;99790.80;106756;1302;22303;-60
2022/11/26 02:22:21;;;;;;;6.10;4.00;;;;;;;0.65;100.00;99787.77;106753;1303;22590;-60
2022/11/26 02:24:49;;;;;;;5.40;3.50;;;;;;;0.70;100.00;99794.64;106556;1302;138865;-61
2022/11/26 02:27:37;;;;;;;4.10;2.90;;;;;;;0.69;100.00;99796.44;106834;1302;22290;-60
2022/11/26 02:30:11;;;;;;;5.50;3.70;;;;;;;0.66;100.00;99804.03;106613;1288;138406;-60
2022/11/26 02:32:57;;;;;;;5.40;2.70;;;;;;;0.64;100.00;99804.48;106555;1302;22262;-60
2022/11/26 02:35:30;;;;;;;3.50;2.70;;;;;;;0.62;100.00;99808.30;106160;1297;139060;-60
2022/11/26 02:38:01;;;;;;;4.60;3.00;;;;;;;0.63;100.00;99813.25;106662;1302;22160;-61
2022/11/26 02:40:28;;;;;;;4.30;3.20;;;;;;;0.61;100.00;99813.14;106685;1302;22934;-61
2022/11/26 02:42:55;;;;;;;5.50;3.30;;;;;;;0.57;100.00;99813.04;106572;1300;138641;-61
2022/11/26 02:45:23;;;;;;;5.00;3.00;;;;;;;0.57;100.00;99820.24;106802;1288;22236;-61
2022/11/26 02:47:55;;;;;;;7.00;2.70;;;;;;;0.57;100.00;99815.96;106529;1303;139485;-61
2022/11/26 02:50:30;;;;;;;3.50;2.50;;;;;;;0.59;100.00;99819.02;106570;1297;22217;-61
2022/11/26 02:52:57;;;;;;;4.10;2.80;;;;;;;0.61;100.00;99823.30;106559;1299;138701;-61
2022/11/26 02:55:29;;;;;;;3.60;2.50;;;;;;;0.63;100.00;99827.84;106539;1303;22694;-61
2022/11/26 02:57:56;;;;;;;5.50;3.00;;;;;;;0.63;100.00;99833.77;106609;1297;22085;-61
2022/11/26 03:00:23;;;;;;;3.60;2.70;;;;;;;0.60;100.00;99833.93;106446;1302;139042;-61
2022/11/26 03:03:11;;;;;;;3.90;2.70;;;;;;;0.57;100.00;99834.64;106712;1304;22218;-61
2022/11/26 03:05:38;;;;;;;3.20;2.60;;;;;;;0.55;100.00;99834.91;106636;1303;138339;-61
2022/11/26 03:08:05;;;;;;;3.20;2.20;;;;;;;0.53;100.00;99839.16;106618;1302;22202;-61
2022/11/26 03:10:32;;;;;;;3.70;3.00;;;;;;;0.51;100.00;99840.45;106763;1302;22165;-61
2022/11/26 03:12:59;;;;;;;5.70;3.20;;;;;;;0.50;100.00;99839.98;106683;1302;137801;-61
2022/11/26 03:15:26;;;;;;;;;;;;;;;0.51;100.00;99839.62;106771;1297;23383;-61
2022/11/26 03:17:53;;;;;;;4.30;2.90;;;;;;;0.47;100.00;99839.98;106682;1294;127769;-61
2022/11/26 03:20:19;;;;;;;4.60;2.50;;;;;;;0.47;100.00;99841.33;106795;1302;22100;-61
2022/11/26 03:22:46;;;;;;;5.10;2.50;;;;;;;0.47;100.00;99839.48;106736;1302;22181;-61
2022/11/26 03:25:13;;;;;;;3.80;2.60;;;;;;;0.48;100.00;99837.77;106585;1302;137403;-61
2022/11/26 03:27:39;;;;;;;;;;;;;;;0.47;100.00;99839.81;106674;1299;22408;-61
2022/11/26 03:30:06;;;;;;;4.40;3.00;;;;;;;0.43;100.00;99837.63;106570;1297;124425;-61
2022/11/26 03:32:33;;;;;;;4.10;2.10;;;;;;;0.32;100.00;99824.90;106614;1295;22226;-61
2022/11/26 03:35:00;;;;;;;2.70;2.20;;;;;;;0.35;100.00;99839.98;106543;1302;137959;-60
2022/11/26 03:37:27;;;;;;;;;;;;;;;0.32;100.00;99838.65;102741;1295;22858;-60
2022/11/26 03:39:53;;;;;;;3.70;2.40;;;;;;;0.30;100.00;99838.34;102487;1285;22567;-60
2022/11/26 03:42:20;;;;;;;3.00;2.20;;;;;;;0.29;100.00;99839.97;102309;1288;137911;-60
2022/11/26 03:44:47;;;;;;;;;;;;;;;0.29;100.00;99843.14;102458;1288;22566;-60
2022/11/26 03:47:13;;;;;;;3.10;2.20;;;;;;;0.26;100.00;99848.64;102321;1288;124628;-60
2022/11/26 03:49:40;;;;;;;;;;;;;;;0.19;100.00;99842.68;102410;1288;22644;-60
2022/11/26 03:52:07;;;;;;;2.70;1.80;;;;;;;0.23;100.00;99848.80;102399;1293;22472;-60
2022/11/26 03:54:34;;;;;;;3.50;2.20;;;;;;;0.24;100.00;99851.95;102417;1285;137741;-60
2022/11/26 03:57:01;;;;;;;3.30;2.20;;;;;;;0.25;100.00;99852.70;102518;1309;25310;-60
2022/11/26 03:59:28;;;;;;;;;;;;;;;0.26;100.00;99855.27;102368;1288;138016;-60
2022/11/26 04:01:54;;;;;;;2.40;1.80;;;;;;;0.27;100.00;99854.73;102378;1303;22635;-60
2022/11/26 04:04:21;;;;;;;3.20;2.20;;;;;;;0.26;100.00;99855.20;102415;1304;26141;-60
2022/11/26 04:06:48;;;;;;;4.40;2.50;;;;;;;0.23;100.00;99858.73;102414;1298;138855;-60
2022/11/26 04:09:15;;;;;;;3.10;2.10;;;;;;;0.19;100.00;99858.05;102407;1303;24046;-60
2022/11/26 04:11:41;;;;;;;3.20;2.60;;;;;;;0.17;100.00;99858.66;102330;1288;138105;-59
2022/11/26 04:14:08;;;;;;;;;;;;;;;0.17;100.00;99860.60;102438;1295;22591;-60
2022/11/26 04:16:35;;;;;;;4.60;2.60;;;;;;;0.17;100.00;99861.84;102428;1288;22529;-60
2022/11/26 04:19:02;;;;;;;3.60;2.70;;;;;;;0.17;100.00;99858.70;102345;1295;138644;-60
2022/11/26 04:21:29;;;;;;;;;;;;;;;0.17;100.00;99862.21;102416;1282;22457;-60
2022/11/26 04:23:55;;;;;;;4.40;2.50;;;;;;;0.17;100.00;99865.77;102260;1290;125894;-60
2022/11/26 04:26:22;;;;;;;4.20;2.40;;;;;;;0.18;100.00;99871.14;102420;1298;22494;-60
2022/11/26 04:28:49;;;;;;;;;;;;;;;0.17;100.00;99872.86;102453;1288;22951;-61
2022/11/26 04:31:16;;;;;;;3.50;2.30;;;;;;;0.16;100.00;99871.77;106328;1310;124809;-60
2022/11/26 04:33:43;;;;;;;3.10;2.40;;;;;;;0.16;100.00;99872.58;106817;1302;22161;-60
2022/11/26 04:36:10;;;;;;;4.50;2.90;;;;;;;0.18;100.00;99872.16;106575;1302;138580;-59
2022/11/26 04:38:37;;;;;;;4.60;3.10;;;;;;;0.20;100.00;99871.84;106735;1303;22801;-60
2022/11/26 04:41:04;;;;;;;3.20;2.80;;;;;;;0.24;100.00;99874.45;106668;1302;139361;-60
2022/11/26 04:43:30;;;;;;;3.60;3.00;;;;;;;0.28;100.00;99883.05;106657;1303;22101;-60
2022/11/26 04:45:57;;;;;;;3.60;3.00;;;;;;;0.31;100.00;99886.05;106605;1297;22132;-60
2022/11/26 04:48:24;;;;;;;;;;;;;;;0.34;100.00;99888.57;106658;1302;138758;-60
2022/11/26 04:50:51;;;;;;;4.00;2.30;;;;;;;0.35;100.00;99887.15;106773;1302;22119;-59
2022/11/26 04:53:20;;;;;;;3.50;3.00;;;;;;;0.37;100.00;99884.16;106673;1302;138454;-60
2022/11/26 04:55:48;;;;;;;4.00;2.90;;;;;;;0.37;100.00;99890.02;106681;1302;22137;-60
2022/11/26 04:58:16;;;;;;;6.10;2.10;;;;;;;0.37;100.00;99889.16;106752;1302;22821;-60
2022/11/26 05:00:43;;;;;;;2.30;1.80;;;;;;;0.38;100.00;99894.70;106688;1293;138226;-60
2022/11/26 05:03:15;;;;;;;3.20;1.60;;;;;;;0.37;100.00;99893.24;106646;1302;22914;-60
2022/11/26 05:05:42;;;;;;;2.50;2.10;;;;;;;0.34;100.00;99893.70;106610;1303;139629;-56
2022/11/26 05:08:09;;;;;;;2.40;1.40;;;;;;;0.31;100.00;99895.53;106661;1302;22110;-56
2022/11/26 05:10:36;;;;;;;2.40;1.70;;;;;;;0.26;100.00;99896.47;106594;1291;22126;-55
2022/11/26 05:13:02;;;;;;;2.80;2.20;;;;;;;0.24;100.00;99897.25;106657;1302;137967;-55
2022/11/26 05:15:29;;;;;;;2.70;1.80;;;;;;;0.25;100.00;99904.19;106689;1302;22125;-55
2022/11/26 05:17:56;;;;;;;3.20;1.80;;;;;;;0.24;100.00;99902.25;106448;1302;138981;-55
2022/11/26 05:20:23;;;;;;;3.60;2.20;;;;;;;0.26;100.00;99910.27;106670;1302;22215;-55
2022/11/26 05:22:49;;;;;;;;;;;;;;;0.27;100.00;99914.21;106655;1287;22356;-56
2022/11/26 05:25:16;;;;;;;2.80;1.80;;;;;;;0.25;100.00;99918.79;106655;1303;124011;-56
2022/11/26 05:27:43;;;;;;;3.70;2.20;;;;;;;0.24;100.00;99920.37;106666;1296;22145;-55
2022/11/26 05:30:10;;;;;;;;;;;;;;;0.23;100.00;99922.75;106589;1302;139343;-56
2022/11/26 05:32:36;;;;;;;2.90;2.00;;;;;;;0.22;100.00;99920.39;106625;1302;22205;-56
2022/11/26 05:35:04;;;;;;;3.30;2.00;;;;;;;0.20;100.00;99924.42;106554;1302;139036;-56
2022/11/26 05:37:31;;;;;;;2.40;2.00;;;;;;;0.20;100.00;99928.88;106576;1303;22108;-60
2022/11/26 05:39:57;;;;;;;3.60;2.10;;;;;;;0.21;100.00;99930.38;106672;1297;23272;-60
2022/11/26 05:42:24;;;;;;;4.80;2.50;;;;;;;0.19;100.00;99928.20;106565;1302;139392;-60
2022/11/26 05:44:51;;;;;;;3.30;2.60;;;;;;;0.19;100.00;99930.02;106678;1302;22194;-61
2022/11/26 05:47:17;;;;;;;;;;;;;;;0.18;100.00;99930.90;106671;1288;137873;-61
2022/11/26 05:49:44;;;;;;;2.90;2.30;;;;;;;0.16;100.00;99936.09;106618;1303;22374;-61
2022/11/26 05:52:11;;;;;;;4.00;2.90;;;;;;;0.15;100.00;99941.03;106674;1302;22128;-61
2022/11/26 05:54:38;;;;;;;5.30;2.40;;;;;;;0.14;100.00;99941.16;106532;1297;138168;-61
2022/11/26 05:57:05;;;;;;;4.90;2.70;;;;;;;0.11;100.00;99946.05;106711;1289;22155;-61
2022/11/26 05:59:32;;;;;;;;;;;;;;;0.10;100.00;99944.84;106575;1302;140381;-60
2022/11/26 06:01:58;;;;;;;3.80;2.60;;;;;;;0.10;100.00;99948.42;106649;1302;22211;-60
2022/11/26 06:04:25;;;;;;;;;;;;;;;0.08;100.00;99949.17;106698;1302;22343;-60
2022/11/26 06:06:52;;;;;;;4.20;2.70;;;;;;;0.09;100.00;99952.98;106566;1303;126571;-60
2022/11/26 06:09:19;;;;;;;4.50;2.80;;;;;;;0.11;100.00;99956.36;106650;1291;22240;-62
2022/11/26 06:11:47;;;;;;;;;;;;;;;0.13;100.00;99959.50;106543;1288;138531;-60
2022/11/26 06:14:14;;;;;;;4.80;3.00;;;;;;;0.15;100.00;99961.06;106780;1302;22240;-61
2022/11/26 06:16:41;;;;;;;5.50;3.30;;;;;;;0.16;100.00;99961.85;106666;1287;22257;-60
2022/11/26 06:19:09;;;;;;;4.60;3.00;;;;;;;0.15;100.00;99960.40;106551;1303;138064;-60
2022/11/26 06:21:36;;;;;;;4.20;3.10;;;;;;;0.14;100.00;99960.28;106607;1290;22123;-60
2022/11/26 06:24:03;;;;;;;5.90;3.50;;;;;;;0.12;100.00;99960.23;106612;1296;138316;-61
2022/11/26 06:26:30;;;;;;;6.80;4.00;;;;;;;0.09;100.00;99961.26;106750;1302;22335;-60
2022/11/26 06:28:56;;;;;;;;;;;;;;;0.10;100.00;99963.06;106656;1302;138850;-60
2022/11/26 06:31:23;;;;;;;3.50;2.70;;;;;;;0.12;100.00;99963.88;106635;1305;22179;-60
2022/11/26 06:33:54;;;;;;;4.70;2.70;;;;;;;0.07;100.00;99959.86;106631;1296;22217;-60
2022/11/26 06:36:21;;;;;;;4.40;3.60;;;;;;;0.13;100.00;99967.73;106601;1303;138779;-60
2022/11/26 06:38:48;;;;;;;5.10;3.10;;;;;;;0.12;100.00;99970.30;106722;1293;22136;-60
2022/11/26 06:41:15;;;;;;;;;;;;;;;0.14;100.00;99973.14;106594;1303;139018;-60
2022/11/26 06:43:41;;;;;;;5.50;3.20;;;;;;;0.15;100.00;99977.30;106604;1302;22116;-60
2022/11/26 06:46:09;;;;;;;7.40;3.60;;;;;;;0.16;100.00;99980.58;106635;1288;22254;-61
2022/11/26 06:48:36;;;;;;;7.40;4.50;;;;;;;0.17;100.00;99980.50;106534;1297;137871;-61
2022/11/26 06:51:07;;;;;;;6.80;4.30;;;;;;;0.17;100.00;99985.99;106631;1287;22246;-61
2022/11/26 13:17:49;;;;;;;17.50;9.20;;;;;;;0.18;100.00;100230.19;100042;1307;558305;-55
2022/11/26 13:20:35;;;;;;;14.20;8.70;;;;;;;0.32;100.00;100232.23;101021;1301;104239;-54
2022/11/26 13:23:17;;;;;;;14.30;9.20;;;;;;;0.33;100.00;100229.71;100998;1298;138912;-55
2022/11/26 13:25:58;;;;;;;12.20;9.30;;;;;;;0.36;100.00;100233.52;101576;1298;22500;-59
2022/11/26 13:28:37;;;;;;;16.90;8.60;;;;;;;0.37;100.00;100231.12;101426;1305;137808;-59
2022/11/26 13:31:32;;;;;;;12.10;6.60;;;;;;;0.34;100.00;100228.04;101587;1304;22529;-61
2022/11/26 13:34:20;;;;;;;11.40;6.70;;;;;;;0.29;100.00;100227.14;101476;1305;138314;-59
2022/11/26 13:36:56;;;;;;;11.90;6.40;;;;;;;0.24;100.00;100229.87;101240;1298;23263;-59
2022/11/26 13:39:51;;;;;;;9.20;6.90;;;;;;;0.22;100.00;100234.09;101605;1317;24552;-55
2022/11/26 13:42:30;;;;;;;8.50;6.80;;;;;;;0.23;100.00;100234.63;101470;1298;22494;-55
2022/11/26 13:45:00;;;;;;;17.80;9.30;;;;;;;0.24;100.00;100237.08;105666;1319;22138;-56
2022/11/26 13:47:40;;;;;;;11.00;8.50;;;;;;;0.23;100.00;100236.60;105950;1312;137972;-56
2022/11/26 13:50:12;;;;;;;8.50;7.10;;;;;;;0.25;100.00;100243.34;105877;1313;22128;-56
2022/11/26 13:52:42;;;;;;;9.30;6.30;;;;;;;0.28;100.00;100248.91;105967;1296;138340;-57
2022/11/26 13:55:16;;;;;;;7.20;5.30;;;;;;;0.30;100.00;100252.20;106045;1305;23287;-59
2022/11/26 13:57:46;;;;;;;6.80;5.20;;;;;;;0.31;100.00;100256.02;105928;1312;137719;-56
2022/11/26 14:00:27;;;;;;;9.00;5.20;;;;;;;0.30;100.00;100254.52;106068;1312;22224;-55
2022/11/26 14:02:54;;;;;;;7.90;5.50;;;;;;;0.29;100.00;100257.02;105986;1289;22167;-56
2022/11/26 14:05:22;;;;;;;10.00;5.50;;;;;;;0.28;100.00;100262.98;105983;1312;138838;-56
2022/11/26 14:07:48;;;;;;;12.70;9.10;;;;;;;0.28;100.00;100261.45;105936;1312;23042;-57
2022/11/26 14:10:34;;;;;;;;;;;;;;;0.29;100.00;100266.98;105755;1315;137922;-56
2022/11/26 14:13:01;;;;;;;10.30;6.20;;;;;;;0.30;100.00;100267.04;105968;1297;22226;-56
2022/11/26 14:15:40;;;;;;;12.10;6.60;;;;;;;0.28;100.00;100263.88;105980;1307;22242;-58
2022/11/26 14:18:14;;;;;;;10.10;6.60;;;;;;;0.28;100.00;100261.98;105760;1314;137503;-59
2022/11/26 14:21:10;;;;;;;12.20;7.10;;;;;;;0.29;100.00;100268.13;105870;1315;22208;-59
2022/11/26 14:23:40;;;;;;;15.30;8.00;;;;;;;0.30;100.00;100269.76;105835;1315;139682;-58
2022/11/26 14:26:10;;;;;;;10.60;6.50;;;;;;;0.32;100.00;100273.27;105847;1304;23032;-58
2022/11/26 14:28:37;;;;;;;11.40;6.00;;;;;;;0.33;100.00;100275.69;105797;1312;137958;-58
2022/11/26 14:31:23;;;;;;;12.00;7.50;;;;;;;0.31;100.00;100273.08;106065;1289;22371;-60
2022/11/26 14:33:51;;;;;;;10.40;6.30;;;;;;;0.38;100.00;100282.31;105932;1312;138164;-58
2022/11/26 14:36:25;;;;;;;10.60;8.10;;;;;;;0.39;100.00;100284.92;105783;1312;22148;-58
2022/11/26 14:39:11;;;;;;;10.50;7.70;;;;;;;0.39;100.00;100285.39;106003;1312;23460;-58
2022/11/26 14:41:41;;;;;;;12.80;8.60;;;;;;;0.40;100.00;100289.54;105775;1305;139362;-58
2022/11/26 14:44:12;;;;;;;13.50;9.60;;;;;;;0.42;100.00;100289.16;105914;1301;22579;-59
2022/11/26 14:46:40;;;;;;;14.20;9.90;;;;;;;0.42;100.00;100288.27;105822;1305;139010;-58
2022/11/26 14:49:40;;;;;;;11.40;8.00;;;;;;;0.44;100.00;100290.34;105863;1299;22285;-58
2022/11/26 14:52:23;;;;;;;16.10;10.70;;;;;;;0.45;100.00;100290.61;105757;1312;139636;-58
2022/11/26 14:54:52;;;;;;;16.40;8.50;;;;;;;0.47;100.00;100290.58;105863;1304;22199;-58
2022/11/26 14:57:24;;;;;;;19.40;11.20;;;;;;;0.46;100.00;100293.52;105808;1313;22173;-59
2022/11/26 14:59:59;;;;;;;14.80;8.50;;;;;;;0.45;100.00;100302.36;105488;1315;138886;-58
2022/11/26 15:02:27;;;;;;;13.00;8.40;;;;;;;0.43;100.00;100302.80;105927;1315;22161;-60
2022/11/26 15:04:58;;;;;;;17.60;10.30;;;;;;;0.43;100.00;100301.43;105816;1307;137798;-59
2022/11/26 15:07:26;;;;;;;12.60;9.10;;;;;;;0.40;100.00;100298.00;105897;1315;22138;-60
2022/11/26 15:10:04;;;;;;;13.70;8.60;;;;;;;0.45;100.00;100304.52;105771;1300;138171;-58
2022/11/26 15:12:30;;;;;;;12.50;8.40;;;;;;;0.46;100.00;100304.58;106049;1307;22153;-58
2022/11/26 15:14:57;;;;;;;13.60;7.80;;;;;;;0.47;100.00;100300.95;106049;1312;23069;-58
2022/11/26 15:17:25;;;;;;;13.60;7.50;;;;;;;0.47;100.00;100302.73;105759;1299;137902;-59
2022/11/26 15:19:53;;;;;;;24.30;17.50;;;;;;;0.47;100.00;100299.82;105863;1304;22988;-58
2022/11/26 15:22:34;;;;;;;12.80;9.40;;;;;;;0.47;100.00;100302.50;105893;1312;139515;-58
2022/11/26 15:25:01;;;;;;;13.00;8.70;;;;;;;0.47;100.00;100301.95;105963;1312;22226;-58
2022/11/26 15:27:38;;;;;;;10.20;8.30;;;;;;;0.46;100.00;100301.55;105850;1312;22212;-59
2022/11/26 15:30:19;;;;;;;11.90;7.60;;;;;;;0.43;100.00;100300.65;106267;1290;138086;-58
2022/11/26 15:32:46;;;;;;;9.80;7.70;;;;;;;0.43;100.00;100296.73;106388;1294;22212;-58
2022/11/26 15:35:13;;;;;;;;;;;;;;;0.43;100.00;100296.63;106189;1307;138667;-59
2022/11/26 15:37:40;;;;;;;10.80;8.00;;;;;;;0.41;100.00;100299.63;106372;1309;22302;-58
2022/11/26 15:40:23;;;;;;;14.10;8.40;;;;;;;0.40;100.00;100300.36;106277;1309;139445;-58
2022/11/26 15:42:52;;;;;;;22.10;14.50;;;;;;;0.38;100.00;100299.70;106372;1309;22164;-58
2022/11/26 15:45:20;;;;;;;10.00;7.90;;;;;;;0.37;100.00;100301.91;106309;1309;23242;-59
2022/11/26 15:47:48;;;;;;;15.10;12.20;;;;;;;0.35;100.00;100305.52;106342;1291;137836;-59
2022/11/26 15:50:28;;;;;;;12.30;9.90;;;;;;;0.32;100.00;100307.91;106287;1309;23008;-59
2022/11/26 15:52:56;;;;;;;12.20;7.90;;;;;;;0.33;100.00;100315.11;106125;1304;138248;-59
2022/11/26 15:55:26;;;;;;;12.20;9.50;;;;;;;0.33;100.00;100310.86;106252;1296;22207;-58
2022/11/26 15:57:53;;;;;;;10.10;7.70;;;;;;;0.34;100.00;100315.08;106276;1308;139203;-58
2022/11/26 16:00:32;;;;;;;9.50;7.60;;;;;;;0.34;100.00;100313.77;106406;1308;22996;-59
2022/11/26 16:02:59;;;;;;;12.80;8.70;;;;;;;0.33;100.00;100314.08;106421;1293;22268;-58
2022/11/26 16:05:32;;;;;;;9.10;6.80;;;;;;;0.31;100.00;100313.73;106274;1294;137886;-58
2022/11/26 16:08:03;;;;;;;15.90;10.50;;;;;;;0.30;100.00;100324.80;106367;1306;22187;-59
2022/11/26 16:10:34;;;;;;;8.70;6.80;;;;;;;0.27;100.00;100328.33;106156;1304;139240;-58
2022/11/26 16:13:31;;;;;;;10.70;7.20;;;;;;;0.27;100.00;100328.75;106335;1300;22202;-59
2022/11/26 16:16:28;;;;;;;8.60;6.70;;;;;;;0.29;100.00;100333.80;106221;1283;139792;-58
2022/11/26 16:18:58;;;;;;;8.30;6.10;;;;;;;0.29;100.00;100335.45;105771;1314;22268;-59
2022/11/26 16:21:29;;;;;;;10.40;7.30;;;;;;;0.28;100.00;100338.27;105751;1308;22365;-58
2022/11/26 16:24:04;;;;;;;9.80;6.70;;;;;;;0.28;100.00;100341.65;105694;1306;139811;-58
2022/11/26 16:26:51;;;;;;;10.10;6.40;;;;;;;0.28;100.00;100340.27;105747;1308;22146;-60
2022/11/26 16:29:18;;;;;;;10.70;7.40;;;;;;;0.29;100.00;100340.98;105505;1295;144103;-59
2022/11/26 16:31:44;;;;;;;;;;;;;;;0.25;100.00;100329.14;105724;1297;22451;-60
2022/11/26 16:34:11;;;;;;;11.50;7.80;;;;;;;0.29;100.00;100337.11;105500;1309;126034;-59
2022/11/26 16:36:40;;;;;;;11.10;7.80;;;;;;;0.28;100.00;100340.44;105558;1315;22284;-60
2022/11/26 16:39:11;;;;;;;15.90;10.20;;;;;;;0.26;100.00;100340.77;105579;1314;22227;-59
2022/11/26 16:41:38;;;;;;;19.20;10.30;;;;;;;0.27;100.00;100339.81;105540;1315;138342;-58
2022/11/26 16:44:04;;;;;;;;;;;;;;;0.29;100.00;100340.08;105630;1315;22382;-60
2022/11/26 16:46:34;;;;;;;11.20;8.30;;;;;;;0.28;100.00;100344.27;105492;1314;124883;-60
2022/11/26 16:49:00;;;;;;;11.30;7.10;;;;;;;0.27;100.00;100343.59;105684;1307;22252;-60
2022/11/26 16:51:27;;;;;;;;;;;;;;;0.27;100.00;100343.92;105614;1299;22386;-59
2022/11/26 16:53:54;;;;;;;15.30;11.50;;;;;;;0.26;100.00;100342.21;105539;1307;127854;-60
2022/11/26 16:56:28;;;;;;;13.80;11.00;;;;;;;0.28;100.00;100345.80;103873;1293;24509;-58
2022/11/26 16:58:56;;;;;;;13.40;10.70;;;;;;;0.26;100.00;100346.48;106198;1311;138547;-58
2022/11/26 17:01:23;;;;;;;12.10;10.40;;;;;;;0.23;100.00;100348.98;106565;1305;22179;-58
2022/11/26 17:03:50;;;;;;;;;;;;;;;0.20;100.00;100347.91;106516;1297;138348;-58
2022/11/26 17:06:24;;;;;;;11.20;8.50;;;;;;;0.19;100.00;100347.11;106499;1305;22686;-59
2022/11/26 17:08:52;;;;;;;11.50;8.40;;;;;;;0.20;100.00;100348.65;106478;1306;22157;-59
2022/11/26 17:11:19;;;;;;;9.50;7.40;;;;;;;0.20;100.00;100347.21;106447;1305;139134;-59
2022/11/26 17:13:45;;;;;;;;;;;;;;;0.18;100.00;100348.45;106539;1305;22448;-58
2022/11/26 17:16:16;;;;;;;10.60;7.60;;;;;;;0.18;100.00;100341.75;106403;1292;124972;-58
2022/11/26 17:18:43;;;;;;;12.70;9.10;;;;;;;0.17;100.00;100345.07;106501;1306;23069;-60
2022/11/26 17:21:10;;;;;;;11.10;8.10;;;;;;;0.16;100.00;100346.02;106534;1301;22096;-58
2022/11/26 17:23:37;;;;;;;;;;;;;;;0.13;100.00;100341.44;106589;1303;138043;-58
2022/11/26 17:26:20;;;;;;;12.20;8.70;;;;;;;0.14;100.00;100344.66;106619;1303;22398;-58
2022/11/26 17:28:47;;;;;;;41.00;25.90;;;;;;;0.14;100.00;100350.95;106404;1305;138473;-58
2022/11/26 17:31:13;;;;;;;48.20;27.80;;;;;;;0.12;100.00;100354.91;106625;1306;22144;-60
2022/11/26 17:33:40;;;;;;;;;;;;;;;0.13;100.00;100361.91;106647;1305;22333;-59
2022/11/26 17:36:14;;;;;;;20.30;15.40;;;;;;;0.12;100.00;100361.84;106278;1310;22129;-61
2022/11/26 17:38:41;;;;;;;301.40;128.60;;;;;;;0.11;100.00;100356.75;106445;1289;22197;-60
2022/11/26 17:41:09;;;;;;;222.00;98.00;;;;;;;0.11;100.00;100360.90;106407;1306;139932;-60
2022/11/26 17:43:37;;;;;;;190.00;88.60;;;;;;;0.12;100.00;100358.86;106531;1305;22164;-60
2022/11/26 17:46:04;;;;;;;764.90;403.40;;;;;;;0.12;100.00;100357.25;106395;1290;139294;-60
2022/11/26 17:48:30;;;;;;;257.30;135.10;;;;;;;0.12;100.00;100354.04;106501;1305;23203;-60
2022/11/26 17:50:57;;;;;;;432.70;315.00;;;;;;;0.12;100.00;100360.06;106524;1284;23006;-60
2022/11/26 17:53:24;;;;;;;199.30;114.10;;;;;;;0.12;100.00;100358.49;106361;1305;139897;-60
2022/11/26 17:55:51;;;;;;;45.40;29.80;;;;;;;0.11;100.00;100360.86;106530;1304;22260;-60
2022/11/26 17:58:17;;;;;;;28.10;19.80;;;;;;;0.12;100.00;100361.38;106268;1290;138468;-60
2022/11/26 18:00:44;;;;;;;;;;;;;;;0.13;100.00;100364.96;106457;1305;22439;-60
2022/11/26 18:03:11;;;;;;;35.00;21.00;;;;;;;0.15;100.00;100361.67;106514;1291;22238;-60